sensor_id;sensor_type;location;lat;lon;timestamp;pressure;altitude;pressure_sealevel;temperature
78369;BMP280;71113;43.092;-89.268;2023-07-24T00:02:03;97912.66;;;21.74
78369;BMP280;71113;43.092;-89.268;2023-07-24T00:04:33;97917.97;;;21.74
78369;BMP280;71113;43.092;-89.268;2023-07-24T00:07:00;97917.19;;;21.73
78369;BMP280;71113;43.092;-89.268;2023-07-24T00:09:26;97925.53;;;21.72
78369;BMP280;71113;43.092;-89.268;2023-07-24T00:11:52;97922.13;;;21.71
78369;BMP280;71113;43.092;-89.268;2023-07-24T00:14:17;97917.13;;;21.69
78369;BMP280;71113;43.092;-89.268;2023-07-24T00:16:43;97916.28;;;21.65
78369;BMP280;71113;43.092;-89.268;2023-07-24T00:19:09;97907.91;;;21.63
78369;BMP280;71113;43.092;-89.268;2023-07-24T00:21:35;97915.00;;;21.59
78369;BMP280;71113;43.092;-89.268;2023-07-24T00:24:01;97913.47;;;21.58
78369;BMP280;71113;43.092;-89.268;2023-07-24T00:26:27;97916.88;;;21.59
78369;BMP280;71113;43.092;-89.268;2023-07-24T00:28:53;97915.00;;;21.59
78369;BMP280;71113;43.092;-89.268;2023-07-24T00:31:19;97917.22;;;21.57
78369;BMP280;71113;43.092;-89.268;2023-07-24T00:33:44;97914.91;;;21.56
78369;BMP280;71113;43.092;-89.268;2023-07-24T00:36:10;97918.94;;;21.50
78369;BMP280;71113;43.092;-89.268;2023-07-24T00:38:36;97920.56;;;21.54
78369;BMP280;71113;43.092;-89.268;2023-07-24T00:41:02;97924.69;;;21.52
78369;BMP280;71113;43.092;-89.268;2023-07-24T00:43:28;97924.59;;;21.48
78369;BMP280;71113;43.092;-89.268;2023-07-24T00:45:56;97926.13;;;21.49
78369;BMP280;71113;43.092;-89.268;2023-07-24T00:48:23;97932.41;;;21.41
78369;BMP280;71113;43.092;-89.268;2023-07-24T00:50:49;97927.59;;;21.47
78369;BMP280;71113;43.092;-89.268;2023-07-24T00:53:16;97931.03;;;21.47
78369;BMP280;71113;43.092;-89.268;2023-07-24T00:55:43;97928.63;;;21.42
78369;BMP280;71113;43.092;-89.268;2023-07-24T00:58:13;97941.63;;;21.47
78369;BMP280;71113;43.092;-89.268;2023-07-24T01:00:39;97938.13;;;21.43
78369;BMP280;71113;43.092;-89.268;2023-07-24T01:03:06;97949.09;;;21.42
78369;BMP280;71113;43.092;-89.268;2023-07-24T01:05:32;97950.97;;;21.41
78369;BMP280;71113;43.092;-89.268;2023-07-24T01:07:58;97951.22;;;21.36
78369;BMP280;71113;43.092;-89.268;2023-07-24T01:10:24;97952.78;;;21.37
78369;BMP280;71113;43.092;-89.268;2023-07-24T01:13:09;97947.78;;;21.35
78369;BMP280;71113;43.092;-89.268;2023-07-24T01:15:48;97951.16;;;21.32
78369;BMP280;71113;43.092;-89.268;2023-07-24T01:18:16;97953.47;;;21.34
78369;BMP280;71113;43.092;-89.268;2023-07-24T01:20:51;97964.06;;;21.34
78369;BMP280;71113;43.092;-89.268;2023-07-24T01:26:22;97968.34;;;21.23
78369;BMP280;71113;43.092;-89.268;2023-07-24T01:28:51;97973.31;;;21.24
78369;BMP280;71113;43.092;-89.268;2023-07-24T01:31:17;97974.84;;;21.25
78369;BMP280;71113;43.092;-89.268;2023-07-24T01:33:44;97974.75;;;21.22
78369;BMP280;71113;43.092;-89.268;2023-07-24T01:36:11;97978.63;;;21.24
78369;BMP280;71113;43.092;-89.268;2023-07-24T01:38:39;97977.41;;;21.22
78369;BMP280;71113;43.092;-89.268;2023-07-24T01:41:06;97979.69;;;21.23
78369;BMP280;71113;43.092;-89.268;2023-07-24T01:43:31;97983.41;;;21.19
78369;BMP280;71113;43.092;-89.268;2023-07-24T01:45:58;97990.94;;;21.17
78369;BMP280;71113;43.092;-89.268;2023-07-24T01:48:24;97996.91;;;21.14
78369;BMP280;71113;43.092;-89.268;2023-07-24T01:50:50;98004.50;;;21.15
78369;BMP280;71113;43.092;-89.268;2023-07-24T01:53:16;97998.34;;;21.11
78369;BMP280;71113;43.092;-89.268;2023-07-24T01:55:42;97998.25;;;21.07
78369;BMP280;71113;43.092;-89.268;2023-07-24T01:58:08;98002.78;;;21.07
78369;BMP280;71113;43.092;-89.268;2023-07-24T02:00:34;98013.03;;;21.08
78369;BMP280;71113;43.092;-89.268;2023-07-24T02:03:00;98009.97;;;21.06
78369;BMP280;71113;43.092;-89.268;2023-07-24T02:05:27;98020.13;;;21.04
78369;BMP280;71113;43.092;-89.268;2023-07-24T02:07:53;98024.28;;;21.02
78369;BMP280;71113;43.092;-89.268;2023-07-24T02:10:19;98027.00;;;21.05
78369;BMP280;71113;43.092;-89.268;2023-07-24T02:12:45;98033.84;;;21.06
78369;BMP280;71113;43.092;-89.268;2023-07-24T02:15:13;98038.28;;;21.02
78369;BMP280;71113;43.092;-89.268;2023-07-24T02:17:39;98038.28;;;21.02
78369;BMP280;71113;43.092;-89.268;2023-07-24T02:20:09;98037.41;;;20.98
78369;BMP280;71113;43.092;-89.268;2023-07-24T02:22:35;98040.63;;;20.92
78369;BMP280;71113;43.092;-89.268;2023-07-24T02:25:03;98046.03;;;20.95
78369;BMP280;71113;43.092;-89.268;2023-07-24T02:27:31;98049.69;;;20.91
78369;BMP280;71113;43.092;-89.268;2023-07-24T02:30:00;98046.28;;;20.90
78369;BMP280;71113;43.092;-89.268;2023-07-24T02:32:27;98053.88;;;20.92
78369;BMP280;71113;43.092;-89.268;2023-07-24T02:34:53;98050.91;;;20.93
78369;BMP280;71113;43.092;-89.268;2023-07-24T02:37:20;98058.00;;;20.89
78369;BMP280;71113;43.092;-89.268;2023-07-24T02:39:46;98061.44;;;20.90
78369;BMP280;71113;43.092;-89.268;2023-07-24T02:42:12;98057.66;;;20.91
78369;BMP280;71113;43.092;-89.268;2023-07-24T02:44:38;98067.50;;;20.90
78369;BMP280;71113;43.092;-89.268;2023-07-24T02:47:04;98071.25;;;20.89
78369;BMP280;71113;43.092;-89.268;2023-07-24T02:49:30;98069.69;;;20.88
78369;BMP280;71113;43.092;-89.268;2023-07-24T02:51:56;98072.59;;;20.83
78369;BMP280;71113;43.092;-89.268;2023-07-24T02:54:22;98068.06;;;20.84
78369;BMP280;71113;43.092;-89.268;2023-07-24T02:56:48;98066.41;;;20.79
78369;BMP280;71113;43.092;-89.268;2023-07-24T02:59:14;98067.84;;;20.77
78369;BMP280;71113;43.092;-89.268;2023-07-24T03:01:40;98069.28;;;20.74
78369;BMP280;71113;43.092;-89.268;2023-07-24T03:04:06;98066.22;;;20.72
78369;BMP280;71113;43.092;-89.268;2023-07-24T03:06:32;98074.94;;;20.72
78369;BMP280;71113;43.092;-89.268;2023-07-24T03:08:58;98069.53;;;20.69
78369;BMP280;71113;43.092;-89.268;2023-07-24T03:11:23;98076.81;;;20.72
78369;BMP280;71113;43.092;-89.268;2023-07-24T03:13:49;98068.00;;;20.68
78369;BMP280;71113;43.092;-89.268;2023-07-24T03:16:15;98074.41;;;20.67
78369;BMP280;71113;43.092;-89.268;2023-07-24T03:18:42;98075.94;;;20.68
78369;BMP280;71113;43.092;-89.268;2023-07-24T03:21:09;98072.06;;;20.65
78369;BMP280;71113;43.092;-89.268;2023-07-24T03:23:35;98070.53;;;20.64
78369;BMP280;71113;43.092;-89.268;2023-07-24T03:26:01;98063.78;;;20.67
78369;BMP280;71113;43.092;-89.268;2023-07-24T03:28:26;98062.13;;;20.62
78369;BMP280;71113;43.092;-89.268;2023-07-24T03:30:53;98061.91;;;20.67
78369;BMP280;71113;43.092;-89.268;2023-07-24T03:33:20;98069.09;;;20.67
78369;BMP280;71113;43.092;-89.268;2023-07-24T03:35:46;98075.06;;;20.64
78369;BMP280;71113;43.092;-89.268;2023-07-24T03:38:12;98074.09;;;20.56
78369;BMP280;71113;43.092;-89.268;2023-07-24T03:40:37;98078.25;;;20.57
78369;BMP280;71113;43.092;-89.268;2023-07-24T03:43:03;98076.06;;;20.59
78369;BMP280;71113;43.092;-89.268;2023-07-24T03:45:30;98071.75;;;20.55
78369;BMP280;71113;43.092;-89.268;2023-07-24T03:47:56;98068.66;;;20.53
78369;BMP280;71113;43.092;-89.268;2023-07-24T03:50:22;98077.84;;;20.55
78369;BMP280;71113;43.092;-89.268;2023-07-24T03:52:48;98076.16;;;20.51
78369;BMP280;71113;43.092;-89.268;2023-07-24T03:55:14;98078.81;;;20.51
78369;BMP280;71113;43.092;-89.268;2023-07-24T03:57:40;98071.97;;;20.50
78369;BMP280;71113;43.092;-89.268;2023-07-24T04:00:06;98067.00;;;20.48
78369;BMP280;71113;43.092;-89.268;2023-07-24T04:02:32;98071.56;;;20.48
78369;BMP280;71113;43.092;-89.268;2023-07-24T04:04:58;98065.03;;;20.45
78369;BMP280;71113;43.092;-89.268;2023-07-24T04:07:24;98077.94;;;20.47
78369;BMP280;71113;43.092;-89.268;2023-07-24T04:09:50;98072.53;;;20.43
78369;BMP280;71113;43.092;-89.268;2023-07-24T04:12:15;98079.72;;;20.42
78369;BMP280;71113;43.092;-89.268;2023-07-24T04:14:41;98087.88;;;20.37
78369;BMP280;71113;43.092;-89.268;2023-07-24T04:17:07;98082.59;;;20.37
78369;BMP280;71113;43.092;-89.268;2023-07-24T04:19:33;98081.72;;;20.33
78369;BMP280;71113;43.092;-89.268;2023-07-24T04:21:59;98087.66;;;20.30
78369;BMP280;71113;43.092;-89.268;2023-07-24T04:24:25;98090.75;;;20.32
78369;BMP280;71113;43.092;-89.268;2023-07-24T04:26:51;98094.47;;;20.31
78369;BMP280;71113;43.092;-89.268;2023-07-24T04:29:17;98092.97;;;20.30
78369;BMP280;71113;43.092;-89.268;2023-07-24T04:31:42;98098.59;;;20.29
78369;BMP280;71113;43.092;-89.268;2023-07-24T04:34:08;98096.25;;;20.27
78369;BMP280;71113;43.092;-89.268;2023-07-24T04:36:34;98094.28;;;20.24
78369;BMP280;71113;43.092;-89.268;2023-07-24T04:39:00;98097.81;;;20.28
78369;BMP280;71113;43.092;-89.268;2023-07-24T04:41:26;98106.44;;;20.25
78369;BMP280;71113;43.092;-89.268;2023-07-24T04:43:52;98104.09;;;20.24
78369;BMP280;71113;43.092;-89.268;2023-07-24T04:46:18;98109.75;;;20.22
78369;BMP280;71113;43.092;-89.268;2023-07-24T04:48:44;98104.78;;;20.21
78369;BMP280;71113;43.092;-89.268;2023-07-24T04:51:09;98104.19;;;20.15
78369;BMP280;71113;43.092;-89.268;2023-07-24T04:53:35;98106.19;;;20.18
78369;BMP280;71113;43.092;-89.268;2023-07-24T04:56:01;98108.72;;;20.15
78369;BMP280;71113;43.092;-89.268;2023-07-24T04:58:27;98106.72;;;20.11
78369;BMP280;71113;43.092;-89.268;2023-07-24T05:00:53;98112.03;;;20.11
78369;BMP280;71113;43.092;-89.268;2023-07-24T05:03:19;98111.91;;;20.08
78369;BMP280;71113;43.092;-89.268;2023-07-24T05:05:48;98110.38;;;20.07
78369;BMP280;71113;43.092;-89.268;2023-07-24T05:08:15;98110.25;;;20.03
78369;BMP280;71113;43.092;-89.268;2023-07-24T05:10:40;98103.75;;;20.01
78369;BMP280;71113;43.092;-89.268;2023-07-24T05:13:06;98116.22;;;20.00
78369;BMP280;71113;43.092;-89.268;2023-07-24T05:15:32;98112.78;;;20.00
78369;BMP280;71113;43.092;-89.268;2023-07-24T05:17:58;98108.94;;;19.97
78369;BMP280;71113;43.092;-89.268;2023-07-24T05:20:24;98103.31;;;19.99
78369;BMP280;71113;43.092;-89.268;2023-07-24T05:22:50;98119.19;;;19.99
78369;BMP280;71113;43.092;-89.268;2023-07-24T05:25:15;98106.94;;;19.94
78369;BMP280;71113;43.092;-89.268;2023-07-24T05:27:41;98110.34;;;19.95
78369;BMP280;71113;43.092;-89.268;2023-07-24T05:30:07;98104.94;;;19.91
78369;BMP280;71113;43.092;-89.268;2023-07-24T05:32:33;98110.13;;;19.88
78369;BMP280;71113;43.092;-89.268;2023-07-24T05:34:59;98106.81;;;19.91
78369;BMP280;71113;43.092;-89.268;2023-07-24T05:37:25;98107.59;;;19.91
78369;BMP280;71113;43.092;-89.268;2023-07-24T05:39:51;98106.22;;;19.85
78369;BMP280;71113;43.092;-89.268;2023-07-24T05:42:17;98101.28;;;19.84
78369;BMP280;71113;43.092;-89.268;2023-07-24T05:44:43;98109.97;;;19.84
78369;BMP280;71113;43.092;-89.268;2023-07-24T05:47:09;98108.88;;;19.85
78369;BMP280;71113;43.092;-89.268;2023-07-24T05:49:34;98103.91;;;19.84
78369;BMP280;71113;43.092;-89.268;2023-07-24T05:52:00;98122.31;;;19.80
78369;BMP280;71113;43.092;-89.268;2023-07-24T05:54:26;98113.63;;;19.79
78369;BMP280;71113;43.092;-89.268;2023-07-24T05:56:52;98113.16;;;19.77
78369;BMP280;71113;43.092;-89.268;2023-07-24T05:59:18;98121.13;;;19.77
78369;BMP280;71113;43.092;-89.268;2023-07-24T06:01:58;98115.69;;;19.74
78369;BMP280;71113;43.092;-89.268;2023-07-24T06:04:24;98118.66;;;19.72
78369;BMP280;71113;43.092;-89.268;2023-07-24T06:06:49;98117.56;;;19.73
78369;BMP280;71113;43.092;-89.268;2023-07-24T06:09:15;98126.50;;;19.69
78369;BMP280;71113;43.092;-89.268;2023-07-24T06:11:41;98121.09;;;19.65
78369;BMP280;71113;43.092;-89.268;2023-07-24T06:14:07;98122.50;;;19.63
78369;BMP280;71113;43.092;-89.268;2023-07-24T06:16:33;98118.28;;;19.62
78369;BMP280;71113;43.092;-89.268;2023-07-24T06:18:59;98113.34;;;19.60
78369;BMP280;71113;43.092;-89.268;2023-07-24T06:21:25;98115.09;;;19.56
78369;BMP280;71113;43.092;-89.268;2023-07-24T06:23:51;98116.84;;;19.52
78369;BMP280;71113;43.092;-89.268;2023-07-24T06:26:16;98121.50;;;19.55
78369;BMP280;71113;43.092;-89.268;2023-07-24T06:28:43;98118.03;;;19.55
78369;BMP280;71113;43.092;-89.268;2023-07-24T06:31:09;98114.75;;;19.58
78369;BMP280;71113;43.092;-89.268;2023-07-24T06:33:34;98117.63;;;19.53
78369;BMP280;71113;43.092;-89.268;2023-07-24T06:36:00;98110.44;;;19.53
78369;BMP280;71113;43.092;-89.268;2023-07-24T06:38:26;98111.97;;;19.54
78369;BMP280;71113;43.092;-89.268;2023-07-24T06:40:52;98110.03;;;19.51
78369;BMP280;71113;43.092;-89.268;2023-07-24T06:43:18;98115.97;;;19.48
78369;BMP280;71113;43.092;-89.268;2023-07-24T06:45:44;98112.06;;;19.45
78369;BMP280;71113;43.092;-89.268;2023-07-24T06:48:10;98117.34;;;19.45
78369;BMP280;71113;43.092;-89.268;2023-07-24T06:50:36;98115.69;;;19.41
78369;BMP280;71113;43.092;-89.268;2023-07-24T06:53:02;98114.78;;;19.37
78369;BMP280;71113;43.092;-89.268;2023-07-24T06:55:28;98111.94;;;19.42
78369;BMP280;71113;43.092;-89.268;2023-07-24T06:57:53;98118.97;;;19.38
78369;BMP280;71113;43.092;-89.268;2023-07-24T07:00:19;98114.31;;;19.35
78369;BMP280;71113;43.092;-89.268;2023-07-24T07:02:45;98123.03;;;19.35
78369;BMP280;71113;43.092;-89.268;2023-07-24T07:05:11;98123.69;;;19.32
78369;BMP280;71113;43.092;-89.268;2023-07-24T07:07:37;98121.06;;;19.32
78369;BMP280;71113;43.092;-89.268;2023-07-24T07:10:05;98123.25;;;19.30
78369;BMP280;71113;43.092;-89.268;2023-07-24T07:12:31;98119.84;;;19.30
78369;BMP280;71113;43.092;-89.268;2023-07-24T07:14:56;98118.28;;;19.29
78369;BMP280;71113;43.092;-89.268;2023-07-24T07:17:22;98118.78;;;19.22
78369;BMP280;71113;43.092;-89.268;2023-07-24T07:19:48;98125.31;;;19.25
78369;BMP280;71113;43.092;-89.268;2023-07-24T07:22:14;98125.19;;;19.21
78369;BMP280;71113;43.092;-89.268;2023-07-24T07:24:40;98121.00;;;19.20
78369;BMP280;71113;43.092;-89.268;2023-07-24T07:27:06;98119.91;;;19.21
78369;BMP280;71113;43.092;-89.268;2023-07-24T07:29:32;98123.28;;;19.22
78369;BMP280;71113;43.092;-89.268;2023-07-24T07:31:58;98121.63;;;19.17
78369;BMP280;71113;43.092;-89.268;2023-07-24T07:34:24;98118.41;;;19.11
78369;BMP280;71113;43.092;-89.268;2023-07-24T07:36:50;98124.25;;;19.17
78369;BMP280;71113;43.092;-89.268;2023-07-24T07:39:15;98124.59;;;19.15
78369;BMP280;71113;43.092;-89.268;2023-07-24T07:41:41;98122.59;;;19.12
78369;BMP280;71113;43.092;-89.268;2023-07-24T07:44:07;98121.03;;;19.11
78369;BMP280;71113;43.092;-89.268;2023-07-24T07:46:33;98127.44;;;19.10
78369;BMP280;71113;43.092;-89.268;2023-07-24T07:48:59;98129.59;;;19.08
78369;BMP280;71113;43.092;-89.268;2023-07-24T07:51:25;98126.94;;;19.08
78369;BMP280;71113;43.092;-89.268;2023-07-24T07:53:51;98124.97;;;19.05
78369;BMP280;71113;43.092;-89.268;2023-07-24T07:56:17;98129.78;;;19.03
78369;BMP280;71113;43.092;-89.268;2023-07-24T07:58:43;98127.50;;;19.02
78369;BMP280;71113;43.092;-89.268;2023-07-24T08:01:09;98122.06;;;18.98
78369;BMP280;71113;43.092;-89.268;2023-07-24T08:03:35;98120.66;;;19.01
78369;BMP280;71113;43.092;-89.268;2023-07-24T08:06:01;98125.16;;;19.00
78369;BMP280;71113;43.092;-89.268;2023-07-24T08:08:27;98122.81;;;18.99
78369;BMP280;71113;43.092;-89.268;2023-07-24T08:10:53;98121.59;;;18.96
78369;BMP280;71113;43.092;-89.268;2023-07-24T08:13:19;98115.13;;;18.94
78369;BMP280;71113;43.092;-89.268;2023-07-24T08:16:12;98120.25;;;18.90
78369;BMP280;71113;43.092;-89.268;2023-07-24T08:18:42;98117.59;;;18.90
78369;BMP280;71113;43.092;-89.268;2023-07-24T08:21:08;98119.78;;;18.88
78369;BMP280;71113;43.092;-89.268;2023-07-24T08:23:34;98117.16;;;18.88
78369;BMP280;71113;43.092;-89.268;2023-07-24T08:26:00;98113.28;;;18.85
78369;BMP280;71113;43.092;-89.268;2023-07-24T08:28:28;98107.19;;;18.85
78369;BMP280;71113;43.092;-89.268;2023-07-24T08:30:58;98110.78;;;18.80
78369;BMP280;71113;43.092;-89.268;2023-07-24T08:33:24;98115.31;;;18.80
78369;BMP280;71113;43.092;-89.268;2023-07-24T08:36:19;98102.56;;;18.82
78369;BMP280;71113;43.092;-89.268;2023-07-24T08:38:53;98114.88;;;18.78
78369;BMP280;71113;43.092;-89.268;2023-07-24T08:41:32;98118.16;;;18.75
78369;BMP280;71113;43.092;-89.268;2023-07-24T08:44:00;98123.44;;;18.75
78369;BMP280;71113;43.092;-89.268;2023-07-24T08:46:27;98116.91;;;18.72
78369;BMP280;71113;43.092;-89.268;2023-07-24T08:48:54;98117.03;;;18.76
78369;BMP280;71113;43.092;-89.268;2023-07-24T08:51:21;98119.25;;;18.74
78369;BMP280;71113;43.092;-89.268;2023-07-24T08:53:49;98121.28;;;18.68
78369;BMP280;71113;43.092;-89.268;2023-07-24T08:56:16;98126.44;;;18.65
78369;BMP280;71113;43.092;-89.268;2023-07-24T08:58:42;98123.34;;;18.63
78369;BMP280;71113;43.092;-89.268;2023-07-24T09:01:08;98119.91;;;18.62
78369;BMP280;71113;43.092;-89.268;2023-07-24T09:03:34;98124.13;;;18.63
78369;BMP280;71113;43.092;-89.268;2023-07-24T09:06:01;98129.53;;;18.67
78369;BMP280;71113;43.092;-89.268;2023-07-24T09:08:39;98130.19;;;18.64
78369;BMP280;71113;43.092;-89.268;2023-07-24T09:11:06;98125.72;;;18.55
78369;BMP280;71113;43.092;-89.268;2023-07-24T09:13:33;98126.13;;;18.57
78369;BMP280;71113;43.092;-89.268;2023-07-24T09:16:00;98125.72;;;18.55
78369;BMP280;71113;43.092;-89.268;2023-07-24T09:18:26;98127.44;;;18.51
78369;BMP280;71113;43.092;-89.268;2023-07-24T09:20:52;98139.53;;;18.52
78369;BMP280;71113;43.092;-89.268;2023-07-24T09:23:28;98135.38;;;18.51
78369;BMP280;71113;43.092;-89.268;2023-07-24T09:25:54;98137.53;;;18.49
78369;BMP280;71113;43.092;-89.268;2023-07-24T09:28:20;98143.91;;;18.48
78369;BMP280;71113;43.092;-89.268;2023-07-24T09:30:54;98139.75;;;18.47
78369;BMP280;71113;43.092;-89.268;2023-07-24T09:33:21;98153.56;;;18.44
78369;BMP280;71113;43.092;-89.268;2023-07-24T09:35:58;98149.03;;;18.45
78369;BMP280;71113;43.092;-89.268;2023-07-24T09:38:24;98156.97;;;18.45
78369;BMP280;71113;43.092;-89.268;2023-07-24T09:40:52;98148.28;;;18.44
78369;BMP280;71113;43.092;-89.268;2023-07-24T09:43:20;98159.63;;;18.45
78369;BMP280;71113;43.092;-89.268;2023-07-24T09:45:48;98158.84;;;18.44
78369;BMP280;71113;43.092;-89.268;2023-07-24T09:48:15;98160.56;;;18.40
78369;BMP280;71113;43.092;-89.268;2023-07-24T09:50:43;98165.84;;;18.40
78369;BMP280;71113;43.092;-89.268;2023-07-24T09:55:52;98167.09;;;18.34
78369;BMP280;71113;43.092;-89.268;2023-07-24T09:58:20;98172.53;;;18.29
78369;BMP280;71113;43.092;-89.268;2023-07-24T10:00:48;98169.72;;;18.34
78369;BMP280;71113;43.092;-89.268;2023-07-24T10:03:14;98176.13;;;18.33
78369;BMP280;71113;43.092;-89.268;2023-07-24T10:05:44;98176.59;;;18.35
78369;BMP280;71113;43.092;-89.268;2023-07-24T10:08:30;98186.34;;;18.35
78369;BMP280;71113;43.092;-89.268;2023-07-24T10:10:58;98178.13;;;18.36
78369;BMP280;71113;43.092;-89.268;2023-07-24T10:13:26;98177.38;;;18.36
78369;BMP280;71113;43.092;-89.268;2023-07-24T10:15:52;98185.75;;;18.38
78369;BMP280;71113;43.092;-89.268;2023-07-24T10:18:28;98185.44;;;18.39
78369;BMP280;71113;43.092;-89.268;2023-07-24T10:23:28;98188.06;;;18.39
78369;BMP280;71113;43.092;-89.268;2023-07-24T10:25:53;98184.03;;;18.42
78369;BMP280;71113;43.092;-89.268;2023-07-24T10:28:30;98189.31;;;18.42
78369;BMP280;71113;43.092;-89.268;2023-07-24T10:30:56;98191.47;;;18.40
78369;BMP280;71113;43.092;-89.268;2023-07-24T10:33:30;98185.53;;;18.43
78369;BMP280;71113;43.092;-89.268;2023-07-24T10:36:05;98192.09;;;18.45
78369;BMP280;71113;43.092;-89.268;2023-07-24T10:38:36;98189.44;;;18.45
78369;BMP280;71113;43.092;-89.268;2023-07-24T10:41:03;98186.81;;;18.45
78369;BMP280;71113;43.092;-89.268;2023-07-24T10:43:39;98185.38;;;18.48
78369;BMP280;71113;43.092;-89.268;2023-07-24T10:46:05;98178.59;;;18.47
78369;BMP280;71113;43.092;-89.268;2023-07-24T10:48:31;98190.06;;;18.51
78369;BMP280;71113;43.092;-89.268;2023-07-24T10:50:57;98192.34;;;18.52
78369;BMP280;71113;43.092;-89.268;2023-07-24T10:53:23;98193.47;;;18.51
78369;BMP280;71113;43.092;-89.268;2023-07-24T10:55:50;98198.28;;;18.49
78369;BMP280;71113;43.092;-89.268;2023-07-24T10:58:16;98206.69;;;18.51
78369;BMP280;71113;43.092;-89.268;2023-07-24T11:00:44;98200.91;;;18.49
78369;BMP280;71113;43.092;-89.268;2023-07-24T11:03:11;98200.78;;;18.54
78369;BMP280;71113;43.092;-89.268;2023-07-24T11:05:41;98209.34;;;18.51
78369;BMP280;71113;43.092;-89.268;2023-07-24T11:08:17;98204.06;;;18.51
78369;BMP280;71113;43.092;-89.268;2023-07-24T11:10:51;98208.38;;;18.56
78369;BMP280;71113;43.092;-89.268;2023-07-24T11:13:22;98215.81;;;18.54
78369;BMP280;71113;43.092;-89.268;2023-07-24T11:15:49;98220.03;;;18.55
78369;BMP280;71113;43.092;-89.268;2023-07-24T11:18:16;98217.09;;;18.56
78369;BMP280;71113;43.092;-89.268;2023-07-24T11:20:45;98218.94;;;18.56
78369;BMP280;71113;43.092;-89.268;2023-07-24T11:23:12;98221.59;;;18.56
78369;BMP280;71113;43.092;-89.268;2023-07-24T11:25:39;98230.47;;;18.51
78369;BMP280;71113;43.092;-89.268;2023-07-24T11:28:06;98226.88;;;18.56
78369;BMP280;71113;43.092;-89.268;2023-07-24T11:30:33;98218.16;;;18.55
78369;BMP280;71113;43.092;-89.268;2023-07-24T11:33:00;98213.03;;;18.59
78369;BMP280;71113;43.092;-89.268;2023-07-24T11:35:27;98219.50;;;18.62
78369;BMP280;71113;43.092;-89.268;2023-07-24T11:37:53;98226.38;;;18.63
78369;BMP280;71113;43.092;-89.268;2023-07-24T11:40:19;98220.78;;;18.64
78369;BMP280;71113;43.092;-89.268;2023-07-24T11:42:47;98217.38;;;18.64
78369;BMP280;71113;43.092;-89.268;2023-07-24T11:45:14;98217.53;;;18.59
78369;BMP280;71113;43.092;-89.268;2023-07-24T11:47:48;98215.34;;;18.61
78369;BMP280;71113;43.092;-89.268;2023-07-24T11:50:16;98216.13;;;18.61
78369;BMP280;71113;43.092;-89.268;2023-07-24T11:52:48;98222.94;;;18.62
78369;BMP280;71113;43.092;-89.268;2023-07-24T11:55:19;98226.06;;;18.64
78369;BMP280;71113;43.092;-89.268;2023-07-24T11:57:59;98231.66;;;18.63
78369;BMP280;71113;43.092;-89.268;2023-07-24T12:00:25;98230.44;;;18.60
78369;BMP280;71113;43.092;-89.268;2023-07-24T12:02:52;98231.81;;;18.57
78369;BMP280;71113;43.092;-89.268;2023-07-24T12:05:18;98232.94;;;18.56
78369;BMP280;71113;43.092;-89.268;2023-07-24T12:07:44;98225.00;;;18.56
78369;BMP280;71113;43.092;-89.268;2023-07-24T12:10:12;98234.44;;;18.57
78369;BMP280;71113;43.092;-89.268;2023-07-24T12:12:47;98231.03;;;18.57
78369;BMP280;71113;43.092;-89.268;2023-07-24T12:15:14;98235.22;;;18.58
78369;BMP280;71113;43.092;-89.268;2023-07-24T12:17:41;98241.78;;;18.61
78369;BMP280;71113;43.092;-89.268;2023-07-24T12:20:08;98245.66;;;18.63
78369;BMP280;71113;43.092;-89.268;2023-07-24T12:22:38;98254.81;;;18.66
78369;BMP280;71113;43.092;-89.268;2023-07-24T12:25:05;98262.88;;;18.69
78369;BMP280;71113;43.092;-89.268;2023-07-24T12:27:32;98258.06;;;18.71
78369;BMP280;71113;43.092;-89.268;2023-07-24T12:29:58;98261.94;;;18.74
78369;BMP280;71113;43.092;-89.268;2023-07-24T12:32:24;98265.03;;;18.76
78369;BMP280;71113;43.092;-89.268;2023-07-24T12:34:51;98268.28;;;18.81
78369;BMP280;71113;43.092;-89.268;2023-07-24T12:37:17;98266.72;;;18.80
78369;BMP280;71113;43.092;-89.268;2023-07-24T12:39:45;98278.38;;;18.88
78369;BMP280;71113;43.092;-89.268;2023-07-24T12:42:11;98275.88;;;18.92
78369;BMP280;71113;43.092;-89.268;2023-07-24T12:44:38;98282.25;;;18.91
78369;BMP280;71113;43.092;-89.268;2023-07-24T12:47:04;98280.53;;;18.95
78369;BMP280;71113;43.092;-89.268;2023-07-24T12:49:30;98286.59;;;18.95
78369;BMP280;71113;43.092;-89.268;2023-07-24T12:51:56;98294.81;;;19.02
78369;BMP280;71113;43.092;-89.268;2023-07-24T12:54:22;98299.94;;;19.07
78369;BMP280;71113;43.092;-89.268;2023-07-24T12:56:49;98299.94;;;19.07
78369;BMP280;71113;43.092;-89.268;2023-07-24T12:59:16;98303.81;;;19.10
78369;BMP280;71113;43.092;-89.268;2023-07-24T13:01:42;98299.13;;;19.15
78369;BMP280;71113;43.092;-89.268;2023-07-24T13:04:08;98306.22;;;19.24
78369;BMP280;71113;43.092;-89.268;2023-07-24T13:06:34;98307.63;;;19.30
78369;BMP280;71113;43.092;-89.268;2023-07-24T13:09:00;98301.69;;;19.33
78369;BMP280;71113;43.092;-89.268;2023-07-24T13:11:26;98304.94;;;19.38
78369;BMP280;71113;43.092;-89.268;2023-07-24T13:13:54;98304.78;;;19.43
78369;BMP280;71113;43.092;-89.268;2023-07-24T13:16:20;98301.16;;;19.48
78369;BMP280;71113;43.092;-89.268;2023-07-24T13:18:46;98303.44;;;19.49
78369;BMP280;71113;43.092;-89.268;2023-07-24T13:21:12;98305.13;;;19.54
78369;BMP280;71113;43.092;-89.268;2023-07-24T13:23:42;98311.03;;;19.60
78369;BMP280;71113;43.092;-89.268;2023-07-24T13:26:09;98303.22;;;19.63
78369;BMP280;71113;43.092;-89.268;2023-07-24T13:28:36;98293.56;;;19.67
78369;BMP280;71113;43.092;-89.268;2023-07-24T13:33:37;98310.00;;;19.73
78369;BMP280;71113;43.092;-89.268;2023-07-24T13:36:03;98312.50;;;19.78
78369;BMP280;71113;43.092;-89.268;2023-07-24T13:38:29;98319.75;;;19.81
78369;BMP280;71113;43.092;-89.268;2023-07-24T13:40:55;98319.91;;;19.85
78369;BMP280;71113;43.092;-89.268;2023-07-24T13:43:21;98312.84;;;19.89
78369;BMP280;71113;43.092;-89.268;2023-07-24T13:45:47;98317.53;;;19.92
78369;BMP280;71113;43.092;-89.268;2023-07-24T13:48:13;98316.41;;;19.93
78369;BMP280;71113;43.092;-89.268;2023-07-24T13:50:39;98322.75;;;20.00
78369;BMP280;71113;43.092;-89.268;2023-07-24T13:53:05;98313.38;;;20.03
78369;BMP280;71113;43.092;-89.268;2023-07-24T13:55:31;98317.47;;;20.00